Map

Track Data

SID SEASON NUMBER BASIN SUBBASIN NAME ISO_TIME NATURE LAT LON WMO_WIND WMO_PRES WMO_AGENCY TRACK_TYPE DIST2LAND LANDFALL IFLAG USA_AGENCY USA_ATCF_ID USA_LAT USA_LON USA_RECORD USA_STATUS USA_WIND USA_PRES USA_SSHS USA_R34_NE USA_R34_SE USA_R34_SW USA_R34_NW USA_R50_NE USA_R50_SE USA_R50_SW USA_R50_NW USA_R64_NE USA_R64_SE USA_R64_SW USA_R64_NW USA_POCI USA_ROCI USA_RMW USA_EYE TOKYO_LAT TOKYO_LON TOKYO_GRADE TOKYO_WIND TOKYO_PRES TOKYO_R50_DIR TOKYO_R50_LONG TOKYO_R50_SHORT TOKYO_R30_DIR TOKYO_R30_LONG TOKYO_R30_SHORT TOKYO_LAND CMA_LAT CMA_LON CMA_CAT CMA_WIND CMA_PRES HKO_LAT HKO_LON HKO_CAT HKO_WIND HKO_PRES NEWDELHI_LAT NEWDELHI_LON NEWDELHI_GRADE NEWDELHI_WIND NEWDELHI_PRES NEWDELHI_CI NEWDELHI_DP NEWDELHI_POCI REUNION_LAT REUNION_LON REUNION_TYPE REUNION_WIND REUNION_PRES REUNION_TNUM REUNION_CI REUNION_RMW REUNION_R34_NE REUNION_R34_SE REUNION_R34_SW REUNION_R34_NW REUNION_R50_NE REUNION_R50_SE REUNION_R50_SW REUNION_R50_NW REUNION_R64_NE REUNION_R64_SE REUNION_R64_SW REUNION_R64_NW BOM_LAT BOM_LON BOM_TYPE BOM_WIND BOM_PRES BOM_TNUM BOM_CI BOM_RMW BOM_R34_NE BOM_R34_SE BOM_R34_SW BOM_R34_NW BOM_R50_NE BOM_R50_SE BOM_R50_SW BOM_R50_NW BOM_R64_NE BOM_R64_SE BOM_R64_SW BOM_R64_NW BOM_ROCI BOM_POCI BOM_EYE BOM_POS_METHOD BOM_PRES_METHOD NADI_LAT NADI_LON NADI_CAT NADI_WIND NADI_PRES WELLINGTON_LAT WELLINGTON_LON WELLINGTON_WIND WELLINGTON_PRES DS824_LAT DS824_LON DS824_STAGE DS824_WIND DS824_PRES TD9636_LAT TD9636_LON TD9636_STAGE TD9636_WIND TD9636_PRES TD9635_LAT TD9635_LON TD9635_WIND TD9635_PRES TD9635_ROCI NEUMANN_LAT NEUMANN_LON NEUMANN_CLASS NEUMANN_WIND NEUMANN_PRES MLC_LAT MLC_LON MLC_CLASS MLC_WIND MLC_PRES USA_GUST BOM_GUST BOM_GUST_PER REUNION_GUST REUNION_GUST_PER USA_SEAHGT USA_SEARAD_NE USA_SEARAD_SE USA_SEARAD_SW USA_SEARAD_NW STORM_SPEED STORM_DIR
1998036S13135 1998 12 SP EA CINDY:VICTOR 1998-02-04 18:00:00 NR -13.1000 135.200 main 0 0 O_____________ jtwc_sh SH221998 -13.1000 135.200 15 -1 10 270
1998036S13135 1998 12 SI WA CINDY:VICTOR 1998-02-04 21:00:00 NR -13.1002 134.690 main 0 0 P_____________ SH221998 -13.1002 134.690 15 -1 10 270
1998036S13135 1998 12 SI WA CINDY:VICTOR 1998-02-05 00:00:00 NR -13.1000 134.200 main 0 0 O_____________ jtwc_sh SH221998 -13.1000 134.200 15 -1 9 270
1998036S13135 1998 12 SI WA CINDY:VICTOR 1998-02-05 03:00:00 NR -13.0999 133.743 main 0 0 P_____________ SH221998 -13.0999 133.743 15 -1 9 274
1998036S13135 1998 12 SI WA CINDY:VICTOR 1998-02-05 04:00:00 NR -13.0599 133.596 15 1007 bom main 0 0 P_____O_______ SH221998 -13.0999 133.595 15 -1 -12.9000 133.600 20 15 1007 1012 9 279
1998036S13135 1998 12 SI WA CINDY:VICTOR 1998-02-05 06:00:00 NR -13.0344 133.312 main 0 0 O_____P_______ jtwc_sh SH221998 -13.1000 133.300 15 -1 -12.9032 133.335 20 8 273
1998036S13135 1998 12 SI WA CINDY:VICTOR 1998-02-05 09:00:00 NR -13.0178 132.880 main 0 0 P_____P_______ SH221998 -13.1000 132.835 15 -1 -12.9082 132.939 20 8 272
1998036S13135 1998 12 SI WA CINDY:VICTOR 1998-02-05 12:00:00 NR -13.0070 132.473 main 0 0 O_____P_______ jtwc_sh SH221998 -13.1000 132.400 15 -1 -12.9140 132.546 20 8 271
1998036S13135 1998 12 SI WA CINDY:VICTOR 1998-02-05 15:00:00 NR -13.0108 132.097 main 0 0 P_____P_______ SH221998 -13.0999 132.035 17 -1 -12.9217 132.160 20 7 269
1998036S13135 1998 12 SI WA CINDY:VICTOR 1998-02-05 18:00:00 NR -13.0161 131.740 main 0 0 O_____P_______ jtwc_sh SH221998 -13.1000 131.700 20 -1 -12.9323 131.780 20 7 269
1998036S13135 1998 12 SI WA CINDY:VICTOR 1998-02-05 21:00:00 NR -13.0195 131.381 main 0 0 P_____P_______ SH221998 -13.0925 131.350 20 -1 -12.9466 131.411 20 7 269
1998036S13135 1998 12 SI WA CINDY:VICTOR 1998-02-06 00:00:00 NR -13.0328 131.027 main 0 0 O_____P_______ jtwc_sh SH221998 -13.1000 131.000 20 -1 -12.9656 131.054 20 7 266
1998036S13135 1998 12 SI WA CINDY:VICTOR 1998-02-06 03:00:00 NR -13.0626 130.680 main 0 0 P_____P_______ SH221998 -13.1350 130.650 20 -1 -12.9903 130.711 20 7 264
1998036S13135 1998 12 SI WA CINDY:VICTOR 1998-02-06 04:00:00 NR -13.0766 130.567 15 1007 bom main 0 0 P_____O_______ SH221998 -13.1533 130.533 20 -1 -13.0000 130.600 20 15 1007 1012 7 262
1998036S13135 1998 12 SI WA CINDY:VICTOR 1998-02-06 06:00:00 NR -13.1108 130.342 main 0 0 O_____P_______ jtwc_sh SH221998 -13.2000 130.300 20 -1 -13.0216 130.384 20 7 260
1998036S13135 1998 12 SI WA CINDY:VICTOR 1998-02-06 09:00:00 NR -13.1755 130.007 main 10 10 P_____P_______ SH221998 -13.2925 129.943 22 -1 -13.0586 130.072 20 7 258
1998036S13135 1998 12 SI WA CINDY:VICTOR 1998-02-06 12:00:00 NR -13.2497 129.687 main 35 24 O_____P_______ jtwc_sh SH221998 -13.4000 129.600 25 -1 -13.0994 129.773 20 6 256
1998036S13135 1998 12 SI WA CINDY:VICTOR 1998-02-06 15:00:00 NR -13.3247 129.385 main 48 48 P_____P_______ SH221998 -13.5075 129.285 25 -1 -13.1420 129.485 20 6 256
1998036S13135 1998 12 SI WA CINDY:VICTOR 1998-02-06 18:00:00 NR -13.3923 129.102 main 76 76 O_____P_______ jtwc_sh SH221998 -13.6000 129.000 25 -1 -13.1845 129.205 20 6 259
1998036S13135 1998 12 SI WA CINDY:VICTOR 1998-02-06 21:00:00 NR -13.4337 128.829 main 108 108 P_____P_______ SH221998 -13.6425 128.727 25 -1 -13.2250 128.930 20 5 260
1998036S13135 1998 12 SI WA CINDY:VICTOR 1998-02-07 00:00:00 NR -13.4807 128.580 main 124 101 O_____P_______ jtwc_sh SH221998 -13.7000 128.500 25 -1 -13.2613 128.660 20 5 253
1998036S13135 1998 12 SI WA CINDY:VICTOR 1998-02-07 03:00:00 NR -13.5708 128.370 main 101 93 P_____P_______ SH221998 -13.8499 128.350 25 -1 -13.2916 128.390 20 4 245
1998036S13135 1998 12 SI WA CINDY:VICTOR 1998-02-07 04:00:00 NR -13.6024 128.302 20 1007 bom main 93 86 P_____O_______ SH221998 -13.9049 128.305 25 -1 -13.3000 128.300 20 20 1007 1012 4 251
1998036S13135 1998 12 SI WA CINDY:VICTOR 1998-02-07 06:00:00 NR -13.6381 128.167 main 86 59 O_____P_______ jtwc_sh SH221998 -14.0000 128.200 25 -1 -13.2763 128.134 20 4 263
1998036S13135 1998 12 SI WA CINDY:VICTOR 1998-02-07 09:00:00 NR -13.6502 127.928 main 59 55 P_____P_______ SH221998 -14.0725 127.965 25 -1 -13.2280 127.890 20 5 270
1998036S13135 1998 12 SI WA CINDY:VICTOR 1998-02-07 12:00:00 NR -13.6375 127.674 main 55 46 O_____P_______ jtwc_sh SH221998 -14.1000 127.700 25 -1 -13.1750 127.649 20 5 274
1998036S13135 1998 12 SI WA CINDY:VICTOR 1998-02-07 15:00:00 NR -13.6183 127.437 main 39 24 P_____P_______ SH221998 -14.1074 127.472 25 -1 -13.1292 127.402 20 5 274
1998036S13135 1998 12 SI WA CINDY:VICTOR 1998-02-07 18:00:00 NR -13.6011 127.171 main 24 22 O_____P_______ jtwc_sh SH221998 -14.1000 127.200 25 -1 -13.1022 127.142 20 6 272
1998036S13135 1998 12 SI WA CINDY:VICTOR 1998-02-07 21:00:00 NR -13.5993 126.839 main 24 24 P_____P_______ SH221998 -14.0926 126.815 25 -1 -13.1060 126.864 20 7 268
1998036S13135 1998 12 SI WA CINDY:VICTOR 1998-02-08 00:00:00 NR -13.6261 126.480 main 44 33 O_____P_______ jtwc_sh SH221998 -14.1000 126.400 25 -1 -13.1522 126.559 20 7 262
1998036S13135 1998 12 SI WA CINDY:VICTOR 1998-02-08 03:00:00 NR -13.7012 126.124 main 33 33 P_____P_______ SH221998 -14.1500 126.028 27 -1 -13.2525 126.221 20 7 257
1998036S13135 1998 12 SI WA CINDY:VICTOR 1998-02-08 04:00:00 NR -13.7346 126.006 20 1008 bom main 35 35 P_____O_______ SH221998 -14.1691 125.912 28 -1 -13.3000 126.100 20 20 1008 1.00000 106 1012 6 261
1998036S13135 1998 12 SI WA CINDY:VICTOR 1998-02-08 06:00:00 TS -13.7509 125.807 main 39 39 O_____P_____O_ jtwc_sh SH221998 -14.2000 125.700 30 -1 -13.4145 125.841 20 20 1007 106 1012 -13.3000 126.100 TC 15 1008 6 260
1998036S13135 1998 12 SI WA CINDY:VICTOR 1998-02-08 09:00:00 TS -13.8263 125.488 main 57 57 P_____P_____P_ SH221998 -14.1999 125.435 30 -1 -13.6232 125.436 20 20 1007 106 1012 -13.4851 125.700 TC 15 1007 6 257
1998036S13135 1998 12 SI WA CINDY:VICTOR 1998-02-08 10:00:00 TS -13.8405 125.393 20 1007 bom main 59 55 P_____O_____P_ SH221998 -14.1975 125.356 30 -1 -13.7000 125.300 20 20 1007 1.00000 106 1012 -13.5519 125.567 TC 15 1007 6 252
1998036S13135 1998 12 SI WA CINDY:VICTOR 1998-02-08 12:00:00 TS -13.9232 125.178 main 62 62 O_____P_____O_ jtwc_sh SH221998 -14.2000 125.200 30 -1 -13.8696 125.033 20 20 1007 106 1012 -13.7000 125.300 TC 15 1007 7 244
1998036S13135 1998 12 SI WA CINDY:VICTOR 1998-02-08 15:00:00 TS -14.1084 124.830 main 70 70 P_____P_____P_ SH221998 -14.2424 124.958 30 -1 -14.1254 124.633 20 20 1007 106 1012 -13.9574 124.900 TC 15 1007 8 241
1998036S13135 1998 12 SI WA CINDY:VICTOR 1998-02-08 16:00:00 TS -14.1683 124.714 20 1007 bom main 70 70 P_____O_____P_ SH221998 -14.2612 124.875 30 -1 -14.2000 124.500 20 20 1007 1.00000 106 1012 -14.0436 124.767 TC 15 1007 8 244
1998036S13135 1998 12 SI WA CINDY:VICTOR 1998-02-08 18:00:00 TS -14.2755 124.476 main 82 82 O_____P_____O_ jtwc_sh SH221998 -14.3000 124.700 30 -1 -14.3266 124.228 20 20 1007 106 1012 -14.2000 124.500 TC 15 1007 7 249
1998036S13135 1998 12 SI WA CINDY:VICTOR 1998-02-08 21:00:00 TS -14.3913 124.117 main 116 116 P_____P_____P_ SH221998 -14.3274 124.430 30 -1 -14.4667 123.828 20 20 1007 106 1012 -14.3800 124.092 TC 15 1007 7 252
1998036S13135 1998 12 SI WA CINDY:VICTOR 1998-02-08 22:00:00 TS -14.4232 123.996 20 1007 bom main 124 124 P_____O_____P_ SH221998 -14.3429 124.329 30 -1 -14.5000 123.700 20 20 1007 1.00000 106 1012 -14.4266 123.959 TC 15 1007 7 256
1998036S13135 1998 12 SI WA CINDY:VICTOR 1998-02-09 00:00:00 TS -14.4812 123.753 main 133 133 O_____P_____O_ jtwc_sh SH221998 -14.4000 124.100 30 -1 -14.5436 123.459 20 20 1006 106 1012 -14.5000 123.700 TC 15 1007 7 256
1998036S13135 1998 12 SI WA CINDY:VICTOR 1998-02-09 03:00:00 TS -14.5751 123.376 main 155 155 P_____P_____P_ SH221998 -14.5850 123.673 30 -1 -14.5828 123.114 20 20 1005 106 1012 -14.5574 123.342 TC 17 1006 8 255
1998036S13135 1998 12 SI WA CINDY:VICTOR 1998-02-09 04:00:00 TS -14.6093 123.248 20 1005 bom main 170 170 P_____O_____P_ SH221998 -14.6583 123.516 30 -1 -14.6000 123.000 20 20 1005 1.00000 106 1012 -14.5696 123.228 TC 18 1005 8 253
1998036S13135 1998 12 SI WA CINDY:VICTOR 1998-02-09 06:00:00 TS -14.6880 122.989 main 180 180 O_____P_____O_ jtwc_sh SH221998 -14.8000 123.200 30 -1 -14.6642 122.767 20 20 1005 114 1012 -14.6000 123.000 TC 20 1005 8 252
1998036S13135 1998 12 SI WA CINDY:VICTOR 1998-02-09 09:00:00 TS -14.8090 122.603 main 192 192 P_____P_____P_ SH221998 -14.9575 122.742 30 -1 -14.7697 122.417 20 20 1005 128 1012 -14.6999 122.650 TC 20 1005 8 252
1998036S13135 1998 12 SI WA CINDY:VICTOR 1998-02-09 10:00:00 TS -14.8470 122.475 20 1005 bom main 195 184 P_____O_____P_ SH221998 -15.0054 122.592 30 -1 -14.8000 122.300 20 20 1005 1.00000 133 1012 -14.7358 122.533 TC 20 1005 8 254
1998036S13135 1998 12 SI WA CINDY:VICTOR 1998-02-09 12:00:00 TS -14.9119 122.222 main 194 193 O_____P_____O_ jtwc_sh SH221998 -15.1000 122.300 30 -1 -14.8358 122.067 20 20 1005 141 1012 -14.8000 122.300 TC 20 1005 7 256
1998036S13135 1998 12 SI WA CINDY:VICTOR 1998-02-09 15:00:00 TS -14.9933 121.855 main 199 199 P_____P_____P_ SH221998 -15.2498 121.900 30 -1 -14.8802 121.717 20 20 1005 155 1012 -14.8499 121.950 TC 20 1005 7 257
1998036S13135 1998 12 SI WA CINDY:VICTOR 1998-02-09 16:00:00 TS -15.0213 121.734 20 1005 bom main 211 209 P_____O_____P_ SH221998 -15.2999 121.769 30 -1 -14.9000 121.600 20 20 1005 1.00000 160 1012 -14.8642 121.833 TC 20 1005 7 255
1998036S13135 1998 12 SI WA CINDY:VICTOR 1998-02-09 18:00:00 TS -15.0880 121.489 main 216 216 O_____P_____O_ jtwc_sh SH221998 -15.4000 121.500 30 -1 -14.9642 121.367 20 21 1005 168 1012 -14.9000 121.600 TC 20 1005 8 252
1998036S13135 1998 12 SI WA CINDY:VICTOR 1998-02-09 21:00:00 TS -15.2140 121.113 main 239 239 P_____P_____P_ SH221998 -15.5724 121.073 32 -1 -15.0697 121.017 20 24 1005 182 1012 -14.9999 121.250 TC 20 1005 8 251
1998036S13135 1998 12 SI WA CINDY:VICTOR 1998-02-09 22:00:00 TS -15.2531 120.985 25 1005 bom main 239 239 P_____O_____P_ SH221998 -15.6236 120.921 33 -1 -15.1000 120.900 20 25 1005 1.50000 187 1012 -15.0358 121.133 TC 20 1005 8 255
1998036S13135 1998 12 SI WA CINDY:VICTOR 1998-02-10 00:00:00 TS -15.3119 120.724 main 262 262 O_____P_____O_ jtwc_sh SH221998 -15.7000 120.600 35 0 -15.1357 120.672 20 25 1004 195 1012 -15.1000 120.900 TC 20 1005 8 262
1998036S13135 1998 12 SI WA CINDY:VICTOR 1998-02-10 03:00:00 TS -15.3509 120.305 main 286 286 P_____P_____P_ SH221998 -15.7227 120.035 37 0 -15.1802 120.322 20 25 1003 209 1012 -15.1499 120.557 TC 22 1004 8 265
1998036S13135 1998 12 SI WA CINDY:VICTOR 1998-02-10 04:00:00 TS -15.3602 120.162 25 1003 bom main 294 302 P_____O_____P_ SH221998 -15.7164 119.846 38 0 -15.2000 120.200 20 25 1003 2.00000 214 1012 -15.1641 120.441 TC 23 1003 8 265
1998036S13135 1998 12 SI WA CINDY:VICTOR 1998-02-10 06:00:00 TS -15.3899 119.880 main 319 319 O_____P_____O_ jtwc_sh SH221998 -15.7000 119.500 40 0 -15.2696 119.941 20 28 1002 214 1012 -15.2000 120.200 TC 25 1003 8 261
1998036S13135 1998 12 SI WA CINDY:VICTOR 1998-02-10 09:00:00 TS -15.4634 119.485 main 348 348 P_____P_____P_ SH221998 -15.7073 119.113 42 0 -15.3754 119.536 20 33 1002 214 1012 -15.3075 119.808 TC 25 1002 8 259
1998036S13135 1998 12 SI WA CINDY:VICTOR 1998-02-10 10:00:00 TS -15.4838 119.359 35 1002 bom main 357 366 P_____O_____P_ SH221998 -15.7077 119.004 43 0 -15.4000 119.400 30 35 1002 2.50000 214 1012 -15.3437 119.672 TC 25 1002 7 263
1998036S13135 1998 12 SI WA CINDY:VICTOR 1998-02-10 12:00:00 TS -15.5052 119.115 main 385 385 O_____P_____O_ jtwc_sh SH221998 -15.7000 118.800 45 0 -15.4157 119.144 30 35 1001 214 1012 -15.4000 119.400 TC 25 1002 7 269
1998036S13135 1998 12 SI WA CINDY:VICTOR 1998-02-10 15:00:00 TS -15.4925 118.753 main 414 414 P_____P_____P_ SH221998 -15.6574 118.500 45 0 -15.4052 118.745 30 35 1000 214 1012 -15.4148 119.015 TC 27 1001 7 273
1998036S13135 1998 12 SI WA CINDY:VICTOR 1998-02-10 16:00:00 TS -15.4831 118.628 35 1000 bom main 433 433 P_____O_____P_ SH221998 -15.6387 118.402 45 0 -15.4000 118.600 30 35 1000 3.00000 214 1012 -15.4107 118.882 TC 28 1000 8 274
1998036S13135 1998 12 SI WA CINDY:VICTOR 1998-02-10 18:00:00 TS -15.4667 118.359 main 452 452 O_____P_____O_ jtwc_sh SH221998 -15.6000 118.200 45 0 -15.4000 118.277 30 35 1000 214 1012 -15.4000 118.600 TC 30 1000 8 273
1998036S13135 1998 12 SI WA CINDY:VICTOR 1998-02-10 21:00:00 TS -15.4525 117.915 main 501 501 P_____P_____P_ SH221998 -15.5574 117.873 47 0 -15.4000 117.766 30 35 1000 214 1012 -15.4000 118.108 TC 30 1000 9 272
1998036S13135 1998 12 SI WA CINDY:VICTOR 1998-02-10 22:00:00 TS -15.4471 117.764 35 1000 bom main 515 525 P_____O_____P_ SH221998 -15.5411 117.755 48 0 -15.4000 117.600 30 35 1000 3.00000 214 1012 -15.4000 117.936 TC 30 1000 9 273
1998036S13135 1998 12 SI WA CINDY:VICTOR 1998-02-11 00:00:00 TS -15.4333 117.466 main 544 544 O_____P_____O_ jtwc_sh SH221998 -15.5000 117.500 50 0 -15.3998 117.298 30 35 1000 214 1012 -15.4000 117.600 TC 30 1000 9 273
1998036S13135 1998 12 SI WA CINDY:VICTOR 1998-02-11 03:00:00 TS -15.4049 117.030 main 570 570 P_____P_____P_ SH221998 -15.4148 117.088 50 0 -15.3999 116.853 30 35 1000 214 1012 -15.3998 117.150 TC 30 1000 9 274
1998036S13135 1998 12 SI WA CINDY:VICTOR 1998-02-11 04:00:00 TS -15.3932 116.879 35 1000 bom main 573 573 P_____O_____P_ SH221998 -15.3798 116.935 50 0 -15.4000 116.700 30 35 1000 3.00000 214 1012 -15.3998 117.002 TC 30 1000 9 274
1998036S13135 1998 12 SI WA CINDY:VICTOR 1998-02-11 06:00:00 TS -15.3703 116.560 main 581 581 O_____P_____O_ jtwc_sh SH221998 -15.3000 116.600 50 0 -15.4108 116.380 30 36 998 214 1012 -15.4000 116.700 TC 30 1000 10 275
1998036S13135 1998 12 SI WA CINDY:VICTOR 1998-02-11 09:00:00 TS -15.3229 116.038 main 597 597 P_____P_____P_ SH221998 -15.1425 116.022 50 0 -15.4113 115.875 30 39 995 214 1012 -15.4149 116.215 TC 35 997 10 276
1998036S13135 1998 12 SI WA CINDY:VICTOR 1998-02-11 10:00:00 TS -15.3018 115.854 40 995 bom main 599 600 P_____O_____P_ SH221998 -15.0896 115.816 50 0 -15.4000 115.700 30 40 995 3.00000 214 1012 -15.4157 116.047 TC 36 996 11 278
1998036S13135 1998 12 SI WA CINDY:VICTOR 1998-02-11 12:00:00 TS -15.2497 115.479 main 617 617 O_____P_____O_ jtwc_sh SH221998 -15.0000 115.400 50 0 -15.3491 115.336 30 40 993 214 1012 -15.4000 115.700 TC 40 995 11 279
1998036S13135 1998 12 SI WA CINDY:VICTOR 1998-02-11 15:00:00 TS -15.1603 114.905 main 633 633 P_____P_____P_ SH221998 -14.9275 114.785 50 0 -15.2386 114.780 30 40 990 214 1012 -15.3150 115.150 TC 42 992 11 279
1998036S13135 1998 12 SI WA CINDY:VICTOR 1998-02-11 16:00:00 TS -15.1307 114.716 40 990 bom main 650 650 P_____O_____P_ SH221998 -14.9145 114.584 50 0 -15.2000 114.600 30 40 990 3.00000 214 1012 -15.2775 114.964 TC 43 991 11 279
1998036S13135 1998 12 SI WA CINDY:VICTOR 1998-02-11 18:00:00 TS -15.0723 114.353 main 661 661 O_____P_____O_ jtwc_sh SH221998 -14.9000 114.200 50 0 -15.1169 114.259 30 44 986 214 1012 -15.2000 114.600 TC 45 990 10 279
1998036S13135 1998 12 SI WA CINDY:VICTOR 1998-02-11 21:00:00 TS -14.9902 113.847 main 697 697 P_____P_____P_ SH221998 -14.8773 113.685 52 0 -15.0161 113.764 30 52 981 214 1012 -15.0773 114.092 TC 52 985 10 279
1998036S13135 1998 12 SI WA CINDY:VICTOR 1998-02-11 22:00:00 TS -14.9738 113.683 55 980 bom main 701 701 P_____O_____P_ SH221998 -14.8786 113.522 53 0 -15.0000 113.600 30 55 980 4.00000 214 1012 -15.0428 113.928 TC 55 983 10 273
1998036S13135 1998 12 SI WA CINDY:VICTOR 1998-02-12 00:00:00 TS -14.9662 113.354 main 706 706 O_____P_____O_ jtwc_sh SH221998 -14.9000 113.200 55 0 -14.9987 113.261 30 56 978 214 1012 -15.0000 113.600 TC 60 980 10 267
1998036S13135 1998 12 SI WA CINDY:VICTOR 1998-02-12 03:00:00 TS -15.0130 112.849 main 721 721 P_____P_____P_ SH221998 -14.9624 112.692 57 0 -15.0640 112.761 30 59 975 214 1012 -15.0124 113.093 TC 65 977 10 263
1998036S13135 1998 12 SI WA CINDY:VICTOR 1998-02-12 04:00:00 TS -15.0444 112.684 60 975 bom main 724 724 P_____O_____P_ SH221998 -14.9987 112.525 58 0 -15.1000 112.600 30 60 975 4.00000 214 1012 -15.0345 112.925 TC 66 976 10 257
1998036S13135 1998 12 SI WA CINDY:VICTOR 1998-02-12 06:00:00 TS -15.1226 112.368 main 743 743 O_____P_____O_ jtwc_sh SH221998 -15.1000 112.200 60 0 -15.1677 112.303 30 63 973 214 1012 -15.1000 112.600 TC 70 975 9 252
1998036S13135 1998 12 SI WA CINDY:VICTOR 1998-02-12 09:00:00 TS -15.2840 111.924 main 770 763 P_____P_____P_ SH221998 -15.3123 111.757 65 1 -15.3275 111.859 30 68 970 214 1012 -15.2123 112.157 TC 72 972 9 248
1998036S13135 1998 12 SI WA CINDY:VICTOR 1998-02-12 10:00:00 TS -15.3554 111.773 70 970 bom main 763 759 P_____O_____P_ SH221998 -15.4010 111.610 66 1 -15.4000 111.700 40 70 970 4.50000 214 1012 -15.2652 112.010 TC 73 971 10 242
1998036S13135 1998 12 SI WA CINDY:VICTOR 1998-02-12 12:00:00 TS -15.5272 111.453 main 762 747 O_____P_____O_ jtwc_sh SH221998 -15.6000 111.300 70 1 -15.5816 111.360 40 73 970 214 1012 -15.4000 111.700 TC 75 970 12 239
1998036S13135 1998 12 SI WA CINDY:VICTOR 1998-02-12 15:00:00 TS -15.8441 110.920 main 756 745 P_____P_____P_ SH221998 -15.9498 110.780 75 1 -15.8977 110.800 40 78 970 214 1012 -15.6849 111.180 TC 75 970 12 239
1998036S13135 1998 12 SI WA CINDY:VICTOR 1998-02-12 16:00:00 TS -15.9543 110.729 80 970 bom main 745 745 P_____O_____P_ SH221998 -16.0715 110.593 76 1 -16.0000 110.600 40 80 970 5.00000 214 1012 -15.7915 110.993 TC 75 970 13 241
1998036S13135 1998 12 SI WA CINDY:VICTOR 1998-02-12 18:00:00 TS -16.1564 110.326 main 746 746 O_____P_____O_ jtwc_sh SH221998 -16.3000 110.200 80 1 -16.1691 110.177 40 81 971 214 1012 -16.0000 110.600 TC 75 970 13 246
1998036S13135 1998 12 SI WA CINDY:VICTOR 1998-02-12 21:00:00 TS -16.4095 109.679 main 763 760 P_____P_____P_ SH221998 -16.5649 109.565 85 2 -16.4136 109.516 40 84 974 214 1012 -16.2500 109.957 TC 72 972 13 248
1998036S13135 1998 12 SI WA CINDY:VICTOR 1998-02-12 22:00:00 TS -16.4917 109.460 85 975 bom main 766 771 P_____O_____P_ SH221998 -16.6441 109.344 86 2 -16.5000 109.300 40 85 975 5.00000 214 1012 -16.3309 109.736 TC 71 973 13 247
1998036S13135 1998 12 SI WA CINDY:VICTOR 1998-02-13 00:00:00 TS -16.6676 109.033 main 783 783 O_____P_____O_ jtwc_sh SH221998 -16.8000 108.900 90 2 -16.7027 108.898 40 81 976 214 1012 -16.5000 109.300 TC 70 975 13 245
1998036S13135 1998 12 SI WA CINDY:VICTOR 1998-02-13 03:00:00 TS -16.9602 108.418 main 803 803 P_____P_____P_ SH221998 -17.0648 108.250 90 2 -17.0086 108.303 40 76 979 214 1012 -16.8072 108.700 TC 65 977 13 244
1998036S13135 1998 12 SI WA CINDY:VICTOR 1998-02-13 04:00:00 TS -17.0530 108.212 75 980 bom main 810 810 P_____O_____P_ SH221998 -17.1490 108.033 90 2 -17.1000 108.100 40 75 980 4.50000 214 1012 -16.9101 108.502 TC 63 978 13 247
1998036S13135 1998 12 SI WA CINDY:VICTOR 1998-02-13 06:00:00 TS -17.2181 107.793 main 835 835 O_____P_____O_ jtwc_sh SH221998 -17.3000 107.600 90 2 -17.2544 107.680 40 70 980 214 1012 -17.1000 108.100 TC 60 980 13 250
1998036S13135 1998 12 SI WA CINDY:VICTOR 1998-02-13 09:00:00 TS -17.4129 107.149 main 880 880 P_____P_____P_ SH221998 -17.4722 106.957 90 2 -17.4442 107.025 40 62 980 214 1012 -17.3223 107.465 TC 60 980 13 253
1998036S13135 1998 12 SI WA CINDY:VICTOR 1998-02-13 10:00:00 TS -17.4679 106.929 60 980 bom main 891 891 P_____O_____P_ SH221998 -17.5185 106.741 90 2 -17.5000 106.800 30 60 980 4.00000 214 1012 -17.3852 107.246 TC 60 980 13 256
1998036S13135 1998 12 SI WA CINDY:VICTOR 1998-02-13 12:00:00 TS -17.5693 106.480 main 920 920 O_____P_____O_ jtwc_sh SH221998 -17.6000 106.300 90 2 -17.6078 106.341 30 58 980 214 1012 -17.5000 106.800 TC 60 980 13 258
1998036S13135 1998 12 SI WA CINDY:VICTOR 1998-02-13 15:00:00 TS -17.7058 105.781 main 977 977 P_____P_____P_ SH221998 -17.7074 105.600 87 2 -17.7525 105.636 30 55 980 214 1012 -17.6573 106.107 TC 60 980 14 259
1998036S13135 1998 12 SI WA CINDY:VICTOR 1998-02-13 16:00:00 TS -17.7480 105.545 55 980 bom main 1005 999 P_____O_____P_ SH221998 -17.7387 105.364 86 2 -17.8000 105.400 30 55 980 4.00000 214 1012 -17.7053 105.872 TC 60 980 14 259
1998036S13135 1998 12 SI WA CINDY:VICTOR 1998-02-13 18:00:00 TS -17.8314 105.081 main 1036 1036 O_____P_____O_ jtwc_sh SH221998 -17.8000 104.900 85 2 -17.8942 104.944 30 53 981 214 1012 -17.8000 105.400 TC 60 980 13 259
1998036S13135 1998 12 SI WA CINDY:VICTOR 1998-02-13 21:00:00 TS -17.9643 104.411 main 1088 1088 P_____P_____P_ SH221998 -17.9069 104.272 77 1 -18.0441 104.245 30 50 984 214 1013 -17.9421 104.715 TC 57 982 13 258
1998036S13135 1998 12 SI WA CINDY:VICTOR 1998-02-13 22:00:00 TS -18.0108 104.181 50 985 bom main 1106 1115 P_____O_____P_ SH221998 -17.9407 104.059 74 1 -18.1000 104.000 30 50 985 3.50000 214 1014 -17.9917 104.482 TC 56 983 14 258
1998036S13135 1998 12 SI WA CINDY:VICTOR 1998-02-14 00:00:00 TS -18.1120 103.698 main 1147 1147 O_____P_____O_ jtwc_sh SH221998 -18.0000 103.600 70 1 -18.2360 103.493 30 50 985 214 1014 -18.1000 104.000 TC 55 985 15 258
1998036S13135 1998 12 SI WA CINDY:VICTOR 1998-02-14 03:00:00 TS -18.2613 102.900 main 1213 1213 P_____P_____P_ SH221998 -18.0349 102.787 65 1 -18.4419 102.683 30 50 985 214 1014 -18.3071 103.230 TC 55 985 16 259
1998036S13135 1998 12 SI WA CINDY:VICTOR 1998-02-14 04:00:00 TS -18.3083 102.619 50 985 bom main 1242 1242 P_____O_____P_ SH221998 -18.0483 102.496 63 0 -18.5000 102.400 30 50 985 3.50000 214 1014 -18.3767 102.960 TC 55 985 17 261
1998036S13135 1998 12 SI WA CINDY:VICTOR 1998-02-14 06:00:00 TS -18.3923 102.038 main 1295 1295 O_____P_____O_ jtwc_sh SH221998 -18.1000 101.900 60 0 -18.5768 101.815 30 46 986 214 1014 -18.5000 102.400 TC 55 985 17 262
1998036S13135 1998 12 SI WA CINDY:VICTOR 1998-02-14 09:00:00 TS -18.5143 101.145 main 1368 1368 P_____P_____P_ SH221998 -18.2696 101.015 57 0 -18.6661 100.905 30 41 989 214 1014 -18.6073 101.515 TC 50 987 17 262
1998036S13135 1998 12 SI WA CINDY:VICTOR 1998-02-14 10:00:00 TS -18.5594 100.841 40 990 bom main 1392 1392 P_____O_____P_ SH221998 -18.3421 100.713 56 0 -18.7000 100.600 30 40 990 3.00000 214 1014 -18.6361 101.210 TC 48 988 18 260
1998036S13135 1998 12 SI WA CINDY:VICTOR 1998-02-14 12:00:00 TS -18.6603 100.233 main 1431 1431 O_____P_____O_ jtwc_sh SH221998 -18.5000 100.100 55 0 -18.7809 99.9998 30 38 991 214 1014 -18.7000 100.600 TC 45 990 18 259
1998036S13135 1998 12 SI WA CINDY:VICTOR 1998-02-14 15:00:00 TS -18.8325 99.3189 main 1487 1487 P_____P_____P_ SH221998 -18.7346 99.1572 55 0 -18.9357 99.0998 30 35 994 214 1014 -18.8271 99.6997 TC 42 992 18 258
1998036S13135 1998 12 SI WA CINDY:VICTOR 1998-02-14 16:00:00 TS -18.8994 99.0127 35 995 bom main 1511 1511 P_____O_____P_ SH221998 -18.8197 98.8385 55 0 -19.0000 98.8000 30 35 995 3.00000 214 1014 -18.8784 99.3997 TC 41 993 18 256
1998036S13135 1998 12 SI WA CINDY:VICTOR 1998-02-14 18:00:00 TS -19.0538 98.3983 main 1561 1561 O_____P_____O_ jtwc_sh SH221998 -19.0000 98.2000 55 0 -19.1614 98.1948 30 31 996 214 1014 -19.0000 98.8000 TC 40 995 18 253
1998036S13135 1998 12 SI WA CINDY:VICTOR 1998-02-14 21:00:00 TS -19.3289 97.4791 main 1628 1628 P_____P_____P_ SH221998 -19.3145 97.2502 50 0 -19.4227 97.2944 30 26 999 214 1014 -19.2497 97.8928 TC 35 997 18 252
1998036S13135 1998 12 SI WA CINDY:VICTOR 1998-02-14 22:00:00 TS -19.4186 97.1753 25 1000 bom main 1654 1660 P_____O_____P_ SH221998 -19.4178 96.9335 48 0 -19.5000 97.0000 20 25 1000 2.00000 214 1014 -19.3380 97.5923 TC 33 998 18 254
1998036S13135 1998 12 SI WA CINDY:VICTOR 1998-02-15 00:00:00 TS -19.5699 96.5768 main 1707 1707 O_____P_____O_ jtwc_sh SH221998 -19.6000 96.3000 45 0 -19.6098 96.4304 20 23 1001 214 1014 -19.5000 97.0000 TC 30 1000 17 258
1998036S13135 1998 12 SI WA CINDY:VICTOR 1998-02-15 03:00:00 TS -19.7237 95.6825 main 1771 1771 P_____P_____P_ SH221998 -19.7650 95.3120 42 0 -19.7492 95.5861 20 20 1004 214 1014 -19.6569 96.1494 TC 25 1002 17 260
1998036S13135 1998 12 SI WA CINDY:VICTOR 1998-02-15 04:00:00 TS -19.7703 95.3874 20 1005 bom main 1799 1805 P_____O_____P_ SH221998 -19.8084 94.9934 41 0 -19.8000 95.3000 20 20 1005 1.00000 214 1014 -19.7024 95.8687 TC 23 1003 17 260
1998036S13135 1998 12 SI WA CINDY:VICTOR 1998-02-15 06:00:00 TS -19.8733 94.7972 main 1847 1847 O_____P_____O_ jtwc_sh SH221998 -19.9000 94.4000 40 0 -19.9200 94.6915 20 20 1005 214 1014 -19.8000 95.3000 TC 20 1005 17 258
1998036S13135 1998 12 SI WA CINDY:VICTOR 1998-02-15 09:00:00 TS -20.0647 93.9467 main 1924 1924 P_____P_____P_ SH221998 -20.0841 93.6697 40 0 -20.1250 93.7854 20 20 1005 214 1014 -19.9850 94.3849 TC 20 1005 16 256
1998036S13135 1998 12 SI WA CINDY:VICTOR 1998-02-15 10:00:00 TS -20.1353 93.6763 20 1005 bom main 1938 1945 P_____O_____P_ SH221998 -20.1526 93.4471 40 0 -20.2000 93.5000 20 20 1005 1.00000 214 1014 -20.0533 94.0816 TC 20 1005 16 253
1998036S13135 1998 12 SI WA CINDY:VICTOR 1998-02-15 12:00:00 TS -20.2879 93.1569 main 1989 1989 O_____P_____O_ jtwc_sh SH221998 -20.3000 93.0000 40 0 -20.3637 92.9708 20 20 1006 214 1014 -20.2000 93.5000 TC 20 1005 15 251
1998036S13135 1998 12 SI WA CINDY:VICTOR 1998-02-15 15:00:00 TS -20.5446 92.4047 main 2063 2063 P_____P_____P_ SH221998 -20.5648 92.2577 40 0 -20.6195 92.2364 20 20 1009 214 1014 -20.4495 92.7199 TC 17 1007 15 250
1998036S13135 1998 12 SI WA CINDY:VICTOR 1998-02-15 16:00:00 TS -20.6289 92.1605 20 1010 bom main 2085 2092 P_____O_____P_ SH221998 -20.6514 92.0056 40 0 -20.7000 92.0000 20 20 1010 1.00000 214 1014 -20.5354 92.4758 TC 16 1008 14 251
1998036S13135 1998 12 SI WA CINDY:VICTOR 1998-02-15 18:00:00 TS -20.7785 91.6732 main 2137 2137 O_____P_____O_ jtwc_sh SH221998 -20.8000 91.5000 40 0 -20.8355 91.5197 20 20 1010 214 1014 -20.7000 92.0000 TC 15 1010 14 254
1998036S13135 1998 12 SI WA CINDY:VICTOR 1998-02-15 21:00:00 TS -20.9481 90.9554 main 2197 2197 P_____P_____P_ SH221998 -20.9146 90.7569 40 0 -21.0301 90.8248 20 20 1010 214 1014 -20.8997 91.2846 TC 15 1010 14 256
1998036S13135 1998 12 SI WA CINDY:VICTOR 1998-02-15 22:00:00 TS -21.0018 90.7201 20 1010 bom main 2227 2227 P_____O_____P_ SH221998 -20.9413 90.5074 40 0 -21.1000 90.6000 20 20 1010 1.00000 214 1014 -20.9640 91.0530 TC 15 1010 14 255
1998036S13135 1998 12 SI WA CINDY:VICTOR 1998-02-16 00:00:00 TS -21.1285 90.2584 main 2265 2265 O_____P_____O_ jtwc_sh SH221998 -21.0000 90.0000 40 0 -21.2854 90.1753 20 20 1010 214 1014 -21.1000 90.6000 TC 15 1010 14 252
1998036S13135 1998 12 SI MM CINDY:VICTOR 1998-02-16 03:00:00 TS -21.3571 89.5681 main 2341 2341 P_____P_____P_ SH221998 -21.1497 89.2076 37 0 -21.5422 89.5314 20 20 1010 214 1014 -21.3794 89.9653 TC 15 1010 14 251
1998036S13135 1998 12 SI MM CINDY:VICTOR 1998-02-16 04:00:00 TS -21.4230 89.3303 main 2365 2365 P_____O_____P_ SH221998 -21.2022 88.9388 36 0 -21.6000 89.3000 20 20 1010 1.00000 214 1014 -21.4668 89.7519 TC 15 1010 14 257
1998036S13135 1998 12 SI MM CINDY:VICTOR 1998-02-16 06:00:00 TS -21.5167 88.8336 main 2411 2411 O_____P_____O_ jtwc_sh SH221998 -21.3000 88.4000 35 0 -21.6501 88.8009 20 20 1010 205 1014 -21.6000 89.3000 TC 15 1010 14 263
1998036S13135 1998 12 SI MM CINDY:VICTOR 1998-02-16 09:00:00 TS -21.5661 88.0460 main 2482 2482 P_____P_____P_ SH221998 -21.4219 87.6150 35 0 -21.6243 87.9859 20 20 1010 191 1014 -21.6522 88.5372 TC 15 1010 15 267
1998036S13135 1998 12 SI MM CINDY:VICTOR 1998-02-16 10:00:00 TS -21.5656 87.7715 main 2498 2506 P_____O_____P_ SH221998 -21.4540 87.3492 35 0 -21.6000 87.7000 20 20 1010 1.00000 187 1014 -21.6426 88.2652 TC 15 1010 16 271
1998036S13135 1998 12 SI MM CINDY:VICTOR 1998-02-16 12:00:00 TS -21.5478 87.2052 main 2539 2539 O_____P_____O_ jtwc_sh SH221998 -21.5000 86.8000 35 0 -21.5435 87.1155 20 20 1010 178 1014 -21.6000 87.7000 TC 15 1010 16 273
1998036S13135 1998 12 SI MM CINDY:VICTOR 1998-02-16 15:00:00 TS -21.4849 86.3090 main 2603 2603 P_____P_____P_ SH221998 -21.5149 85.9072 35 0 -21.4327 86.2051 20 20 1010 164 1014 -21.5072 86.8147 TC 15 1010 17 274
1998036S13135 1998 12 SI MM CINDY:VICTOR 1998-02-16 16:00:00 TS -21.4600 86.0044 main 2620 2617 P_____O_____P_ SH221998 -21.5107 85.6027 35 0 -21.4000 85.9000 20 20 1010 1.00000 160 1014 -21.4694 86.5106 TC 15 1010 17 274
1998036S13135 1998 12 SI MM CINDY:VICTOR 1998-02-16 18:00:00 TS -21.4212 85.4019 main 2647 2647 O_____P_____O_ jtwc_sh SH221998 -21.5000 85.0000 35 0 -21.3637 85.3057 20 20 1010 160 1014 -21.4000 85.9000 TC 15 1010 17 273
1998036S13135 1998 12 SI MM CINDY:VICTOR 1998-02-16 21:00:00 TS -21.3844 84.5187 main 2702 2702 P_____P_____P_ SH221998 -21.4845 84.1423 35 0 -21.3194 84.4059 20 20 1010 160 1014 -21.3494 85.0078 TC 15 1010 16 273
1998036S13135 1998 12 SI MM CINDY:VICTOR 1998-02-16 22:00:00 TS -21.3730 84.2231 main 2721 2690 P_____O_____P_ SH221998 -21.4837 83.8610 35 0 -21.3000 84.1000 20 20 1010 1.00000 160 1014 -21.3353 84.7082 TC 15 1010 16 272
1998036S13135 1998 12 SI MM CINDY:VICTOR 1998-02-17 00:00:00 TS -21.3582 83.6390 main 2680 2597 O_____P_____O_ jtwc_sh SH221998 -21.5000 83.3000 35 0 -21.2466 83.4762 20 20 1010 160 1014 -21.3000 84.1000 TC 15 1010 17 270
1998036S13135 1998 12 SI MM CINDY:VICTOR 1998-02-17 03:00:00 TS -21.3654 82.7024 main 2587 2556 P_____P_____P_ SH221998 -21.5921 82.4503 35 0 -21.1396 82.5207 20 20 1010 160 1014 -21.2137 83.1596 TC 15 1010 18 267
1998036S13135 1998 12 SI MM CINDY:VICTOR 1998-02-17 04:00:00 TS -21.4251 82.3642 main 2556 2493 P_____O_____P_ SH221998 -21.6300 82.1669 35 0 -21.1000 82.2000 20 20 1010 1.00000 160 1014 -21.1777 82.8408 TC 15 1010 19 257
1998036S13135 1998 12 SI MM CINDY:VICTOR 1998-02-17 06:00:00 TS -21.5800 81.7200 main 2483 2390 O___________O_ jtwc_sh SH221998 -21.7000 81.6000 35 0 20 -21.1000 82.2000 TC 15 1010 18 258
1998036S13135 1998 12 SI MM CINDY:VICTOR 1998-02-17 09:00:00 NR -21.7345 80.7569 main 2390 2297 P_____________ SH221998 -21.7345 80.7569 35 0 20 TC 17 263
1998036S13135 1998 12 SI MM CINDY:VICTOR 1998-02-17 12:00:00 NR -21.8000 79.9000 main 2297 2204 O_____________ jtwc_sh SH221998 -21.8000 79.9000 35 0 17 262
1998036S13135 1998 12 SI MM CINDY:VICTOR 1998-02-17 15:00:00 NR -21.9625 78.9850 main 2204 2112 P_____________ SH221998 -21.9625 78.9850 35 0 17 257
1998036S13135 1998 12 SI MM CINDY:VICTOR 1998-02-17 18:00:00 NR -22.2000 78.1000 main 2112 2031 O_____________ jtwc_sh SH221998 -22.2000 78.1000 35 0 17 253
1998036S13135 1998 12 SI MM CINDY:VICTOR 1998-02-17 21:00:00 NR -22.4549 77.2823 main 2031 1962 P_____________ SH221998 -22.4549 77.2823 35 0 15 247
1998036S13135 1998 12 SI MM CINDY:VICTOR 1998-02-18 00:00:00 NR -22.8000 76.6000 main 1962 1915 O_____________ jtwc_sh SH221998 -22.8000 76.6000 35 0 13 235
1998036S13135 1998 12 SI MM CINDY:VICTOR 1998-02-18 03:00:00 NR -23.2320 76.0968 main 1915 1882 P_____________ SH221998 -23.2320 76.0968 35 0 13 220
1998036S13135 1998 12 SI MM CINDY:VICTOR 1998-02-18 06:00:00 NR -23.8000 75.7000 main 1883 1855 O_____________ jtwc_sh SH221998 -23.8000 75.7000 35 0 15 211
1998036S13135 1998 12 SI MM CINDY:VICTOR 1998-02-18 09:00:00 NR -24.4901 75.2627 main 1857 1834 P_____________ SH221998 -24.4901 75.2627 35 0 17 206
1998036S13135 1998 12 SI MM CINDY:VICTOR 1998-02-18 12:00:00 NR -25.3000 74.9000 main 1837 1832 O_____________ jtwc_sh SH221998 -25.3000 74.9000 35 0 18 198
1998036S13135 1998 12 SI MM CINDY:VICTOR 1998-02-18 15:00:00 NR -26.1824 74.6626 main 1845 1839 P_____________ SH221998 -26.1824 74.6626 32 -1 18 191
1998036S13135 1998 12 SI MM CINDY:VICTOR 1998-02-18 18:00:00 NR -27.1000 74.5000 main 1858 O_____________ jtwc_sh SH221998 -27.1000 74.5000 30 -1 19 189

Digital Typhoon Data and Search

About IBTrACS Database

This database is a web-friendly format of International Best Track Archive for Climate Stewardship (IBTrACS), a global best track data archive curated by NOAA dating back to 1842.

Updated: 2021-10-21